sensor_id;sensor_type;location;lat;lon;timestamp;temperature;humidity
62998;DHT22;55949;52.590;7.330;2024-02-04T00:00:36;10.20;99.90
62998;DHT22;55949;52.590;7.330;2024-02-04T00:01:40;10.10;99.90
62998;DHT22;55949;52.590;7.330;2024-02-04T00:03:05;10.10;99.90
62998;DHT22;55949;52.590;7.330;2024-02-04T00:04:20;10.20;99.90
62998;DHT22;55949;52.590;7.330;2024-02-04T00:05:21;10.20;99.90
62998;DHT22;55949;52.590;7.330;2024-02-04T00:06:22;10.20;99.90
62998;DHT22;55949;52.590;7.330;2024-02-04T00:07:22;10.10;99.90
62998;DHT22;55949;52.590;7.330;2024-02-04T00:08:23;10.10;99.90
62998;DHT22;55949;52.590;7.330;2024-02-04T00:09:24;10.10;99.90
62998;DHT22;55949;52.590;7.330;2024-02-04T00:10:24;10.10;99.90
62998;DHT22;55949;52.590;7.330;2024-02-04T00:11:27;10.00;99.90
62998;DHT22;55949;52.590;7.330;2024-02-04T00:12:28;10.00;99.90
62998;DHT22;55949;52.590;7.330;2024-02-04T00:13:28;10.00;99.90
62998;DHT22;55949;52.590;7.330;2024-02-04T00:14:29;10.10;99.90
62998;DHT22;55949;52.590;7.330;2024-02-04T00:15:30;10.10;99.90
62998;DHT22;55949;52.590;7.330;2024-02-04T00:16:31;10.10;99.90
62998;DHT22;55949;52.590;7.330;2024-02-04T00:17:32;10.20;99.90
62998;DHT22;55949;52.590;7.330;2024-02-04T00:18:34;10.20;99.90
62998;DHT22;55949;52.590;7.330;2024-02-04T00:19:35;10.10;99.90
62998;DHT22;55949;52.590;7.330;2024-02-04T00:20:35;10.20;99.90
62998;DHT22;55949;52.590;7.330;2024-02-04T00:21:36;10.10;99.90
62998;DHT22;55949;52.590;7.330;2024-02-04T00:22:37;10.10;99.90
62998;DHT22;55949;52.590;7.330;2024-02-04T00:23:37;10.20;99.90
62998;DHT22;55949;52.590;7.330;2024-02-04T00:24:38;10.10;99.90
62998;DHT22;55949;52.590;7.330;2024-02-04T00:25:39;10.10;99.90
62998;DHT22;55949;52.590;7.330;2024-02-04T00:26:42;10.10;99.90
62998;DHT22;55949;52.590;7.330;2024-02-04T00:27:42;10.20;99.90
62998;DHT22;55949;52.590;7.330;2024-02-04T00:28:43;10.20;99.90
62998;DHT22;55949;52.590;7.330;2024-02-04T00:29:44;10.30;99.90
62998;DHT22;55949;52.590;7.330;2024-02-04T00:30:44;10.30;99.90
62998;DHT22;55949;52.590;7.330;2024-02-04T00:31:45;10.30;99.90
62998;DHT22;55949;52.590;7.330;2024-02-04T00:32:46;10.20;99.90
62998;DHT22;55949;52.590;7.330;2024-02-04T00:33:46;10.10;99.90
62998;DHT22;55949;52.590;7.330;2024-02-04T00:34:47;10.10;99.90
62998;DHT22;55949;52.590;7.330;2024-02-04T00:35:48;10.10;99.90
62998;DHT22;55949;52.590;7.330;2024-02-04T00:36:49;10.10;99.90
62998;DHT22;55949;52.590;7.330;2024-02-04T00:37:49;10.10;99.90
62998;DHT22;55949;52.590;7.330;2024-02-04T00:38:50;10.10;99.90
62998;DHT22;55949;52.590;7.330;2024-02-04T00:39:50;10.10;99.90
62998;DHT22;55949;52.590;7.330;2024-02-04T00:40:51;10.20;99.90
62998;DHT22;55949;52.590;7.330;2024-02-04T00:41:52;10.10;99.90
62998;DHT22;55949;52.590;7.330;2024-02-04T00:42:56;10.00;99.90
62998;DHT22;55949;52.590;7.330;2024-02-04T00:43:56;10.00;99.90
62998;DHT22;55949;52.590;7.330;2024-02-04T00:44:57;9.90;99.90
62998;DHT22;55949;52.590;7.330;2024-02-04T00:45:57;10.00;99.90
62998;DHT22;55949;52.590;7.330;2024-02-04T00:47:00;10.00;99.90
62998;DHT22;55949;52.590;7.330;2024-02-04T00:48:01;10.00;99.90
62998;DHT22;55949;52.590;7.330;2024-02-04T00:49:02;10.00;99.90
62998;DHT22;55949;52.590;7.330;2024-02-04T00:50:02;10.00;99.90
62998;DHT22;55949;52.590;7.330;2024-02-04T00:51:03;10.00;99.90
62998;DHT22;55949;52.590;7.330;2024-02-04T00:52:12;10.00;99.90
62998;DHT22;55949;52.590;7.330;2024-02-04T00:53:14;10.10;99.90
62998;DHT22;55949;52.590;7.330;2024-02-04T00:54:15;10.00;99.90
62998;DHT22;55949;52.590;7.330;2024-02-04T00:55:16;10.00;99.90
62998;DHT22;55949;52.590;7.330;2024-02-04T00:56:16;9.90;99.90
62998;DHT22;55949;52.590;7.330;2024-02-04T00:57:17;9.80;99.90
62998;DHT22;55949;52.590;7.330;2024-02-04T00:58:18;9.90;99.90
62998;DHT22;55949;52.590;7.330;2024-02-04T00:59:18;9.90;99.90
62998;DHT22;55949;52.590;7.330;2024-02-04T01:00:19;9.80;99.90
62998;DHT22;55949;52.590;7.330;2024-02-04T01:01:20;9.80;99.90
62998;DHT22;55949;52.590;7.330;2024-02-04T01:02:21;9.80;99.90
62998;DHT22;55949;52.590;7.330;2024-02-04T01:03:21;9.90;99.90
62998;DHT22;55949;52.590;7.330;2024-02-04T01:04:22;10.00;99.90
62998;DHT22;55949;52.590;7.330;2024-02-04T01:05:26;9.90;99.90
62998;DHT22;55949;52.590;7.330;2024-02-04T01:06:27;10.00;99.90
62998;DHT22;55949;52.590;7.330;2024-02-04T01:07:28;9.90;99.90
62998;DHT22;55949;52.590;7.330;2024-02-04T01:08:29;10.00;99.90
62998;DHT22;55949;52.590;7.330;2024-02-04T01:09:32;10.00;99.90
62998;DHT22;55949;52.590;7.330;2024-02-04T01:10:33;9.90;99.90
62998;DHT22;55949;52.590;7.330;2024-02-04T01:11:34;9.90;99.90
62998;DHT22;55949;52.590;7.330;2024-02-04T01:12:34;9.90;99.90
62998;DHT22;55949;52.590;7.330;2024-02-04T01:13:35;9.80;99.90
62998;DHT22;55949;52.590;7.330;2024-02-04T01:14:39;9.70;99.90
62998;DHT22;55949;52.590;7.330;2024-02-04T01:15:40;9.60;99.90
62998;DHT22;55949;52.590;7.330;2024-02-04T01:16:41;9.70;99.90
62998;DHT22;55949;52.590;7.330;2024-02-04T01:17:41;9.60;99.90
62998;DHT22;55949;52.590;7.330;2024-02-04T01:18:42;9.70;99.90
62998;DHT22;55949;52.590;7.330;2024-02-04T01:19:43;9.80;99.90
62998;DHT22;55949;52.590;7.330;2024-02-04T01:20:44;9.80;99.90
62998;DHT22;55949;52.590;7.330;2024-02-04T01:21:45;9.70;99.90
62998;DHT22;55949;52.590;7.330;2024-02-04T01:22:48;9.70;99.90
62998;DHT22;55949;52.590;7.330;2024-02-04T01:23:49;9.60;99.90
62998;DHT22;55949;52.590;7.330;2024-02-04T01:24:50;9.70;99.90
62998;DHT22;55949;52.590;7.330;2024-02-04T01:25:50;9.60;99.90
62998;DHT22;55949;52.590;7.330;2024-02-04T01:26:51;9.70;99.90
62998;DHT22;55949;52.590;7.330;2024-02-04T01:27:52;9.70;99.90
62998;DHT22;55949;52.590;7.330;2024-02-04T01:28:52;9.70;99.90
62998;DHT22;55949;52.590;7.330;2024-02-04T01:29:53;9.70;99.90
62998;DHT22;55949;52.590;7.330;2024-02-04T01:30:54;9.70;99.90
62998;DHT22;55949;52.590;7.330;2024-02-04T01:31:55;9.70;99.90
62998;DHT22;55949;52.590;7.330;2024-02-04T01:32:56;9.70;99.90
62998;DHT22;55949;52.590;7.330;2024-02-04T01:33:57;9.70;99.90
62998;DHT22;55949;52.590;7.330;2024-02-04T01:34:57;9.70;99.90
62998;DHT22;55949;52.590;7.330;2024-02-04T01:35:58;9.70;99.90
62998;DHT22;55949;52.590;7.330;2024-02-04T01:36:59;9.80;99.90
62998;DHT22;55949;52.590;7.330;2024-02-04T01:38:02;9.80;99.90
62998;DHT22;55949;52.590;7.330;2024-02-04T01:39:03;9.80;99.90
62998;DHT22;55949;52.590;7.330;2024-02-04T01:40:05;9.80;99.90
62998;DHT22;55949;52.590;7.330;2024-02-04T01:41:06;9.80;99.90
62998;DHT22;55949;52.590;7.330;2024-02-04T01:42:07;9.80;99.90
62998;DHT22;55949;52.590;7.330;2024-02-04T01:43:08;9.80;99.90
62998;DHT22;55949;52.590;7.330;2024-02-04T01:44:13;9.80;99.90
62998;DHT22;55949;52.590;7.330;2024-02-04T01:45:14;9.80;99.90
62998;DHT22;55949;52.590;7.330;2024-02-04T01:46:14;9.80;99.90
62998;DHT22;55949;52.590;7.330;2024-02-04T01:47:15;9.80;99.90
62998;DHT22;55949;52.590;7.330;2024-02-04T01:48:16;9.80;99.90
62998;DHT22;55949;52.590;7.330;2024-02-04T01:49:17;9.90;99.90
62998;DHT22;55949;52.590;7.330;2024-02-04T01:50:18;9.90;99.90
62998;DHT22;55949;52.590;7.330;2024-02-04T01:51:19;9.90;99.90
62998;DHT22;55949;52.590;7.330;2024-02-04T01:52:20;9.80;99.90
62998;DHT22;55949;52.590;7.330;2024-02-04T01:53:22;9.90;99.90
62998;DHT22;55949;52.590;7.330;2024-02-04T01:54:25;9.80;99.90
62998;DHT22;55949;52.590;7.330;2024-02-04T01:55:26;9.80;99.90
62998;DHT22;55949;52.590;7.330;2024-02-04T01:56:27;9.90;99.90
62998;DHT22;55949;52.590;7.330;2024-02-04T01:57:27;9.80;99.90
62998;DHT22;55949;52.590;7.330;2024-02-04T01:58:28;9.60;99.90
62998;DHT22;55949;52.590;7.330;2024-02-04T01:59:30;9.70;99.90
62998;DHT22;55949;52.590;7.330;2024-02-04T02:00:31;9.70;99.90
62998;DHT22;55949;52.590;7.330;2024-02-04T02:01:33;9.70;99.90
62998;DHT22;55949;52.590;7.330;2024-02-04T02:02:39;9.70;99.90
62998;DHT22;55949;52.590;7.330;2024-02-04T02:03:40;9.70;99.90
62998;DHT22;55949;52.590;7.330;2024-02-04T02:04:40;9.80;99.90
62998;DHT22;55949;52.590;7.330;2024-02-04T02:05:42;9.70;99.90
62998;DHT22;55949;52.590;7.330;2024-02-04T02:06:42;9.70;99.90
62998;DHT22;55949;52.590;7.330;2024-02-04T02:07:44;9.70;99.90
62998;DHT22;55949;52.590;7.330;2024-02-04T02:08:46;9.70;99.90
62998;DHT22;55949;52.590;7.330;2024-02-04T02:09:47;9.60;99.90
62998;DHT22;55949;52.590;7.330;2024-02-04T02:10:48;9.60;99.90
62998;DHT22;55949;52.590;7.330;2024-02-04T02:12:07;9.60;99.90
62998;DHT22;55949;52.590;7.330;2024-02-04T02:13:22;9.50;99.90
62998;DHT22;55949;52.590;7.330;2024-02-04T02:14:31;9.50;99.90
62998;DHT22;55949;52.590;7.330;2024-02-04T02:15:39;9.50;99.90
62998;DHT22;55949;52.590;7.330;2024-02-04T02:16:41;9.40;99.90
62998;DHT22;55949;52.590;7.330;2024-02-04T02:18:06;9.50;99.90
62998;DHT22;55949;52.590;7.330;2024-02-04T02:20:41;9.40;99.90
62998;DHT22;55949;52.590;7.330;2024-02-04T02:23:29;9.40;99.90
62998;DHT22;55949;52.590;7.330;2024-02-04T02:24:35;9.40;99.90
62998;DHT22;55949;52.590;7.330;2024-02-04T02:25:37;9.20;99.90
62998;DHT22;55949;52.590;7.330;2024-02-04T02:26:38;9.30;99.90
62998;DHT22;55949;52.590;7.330;2024-02-04T02:27:50;9.30;99.90
62998;DHT22;55949;52.590;7.330;2024-02-04T02:28:50;9.40;99.90
62998;DHT22;55949;52.590;7.330;2024-02-04T02:29:51;9.30;99.90
62998;DHT22;55949;52.590;7.330;2024-02-04T02:30:52;9.40;99.90
62998;DHT22;55949;52.590;7.330;2024-02-04T02:31:53;9.30;99.90
62998;DHT22;55949;52.590;7.330;2024-02-04T02:32:53;9.30;99.90
62998;DHT22;55949;52.590;7.330;2024-02-04T02:33:54;9.20;99.90
62998;DHT22;55949;52.590;7.330;2024-02-04T02:34:55;9.20;99.90
62998;DHT22;55949;52.590;7.330;2024-02-04T02:35:57;9.30;99.90
62998;DHT22;55949;52.590;7.330;2024-02-04T02:38:43;9.30;99.90
62998;DHT22;55949;52.590;7.330;2024-02-04T02:40:16;9.30;99.90
62998;DHT22;55949;52.590;7.330;2024-02-04T02:41:21;9.40;99.90
62998;DHT22;55949;52.590;7.330;2024-02-04T02:42:22;9.40;99.90
62998;DHT22;55949;52.590;7.330;2024-02-04T02:43:23;9.40;99.90
62998;DHT22;55949;52.590;7.330;2024-02-04T02:44:28;9.40;99.90
62998;DHT22;55949;52.590;7.330;2024-02-04T02:45:30;9.40;99.90
62998;DHT22;55949;52.590;7.330;2024-02-04T02:46:32;9.40;99.90
62998;DHT22;55949;52.590;7.330;2024-02-04T02:47:33;9.40;99.90
62998;DHT22;55949;52.590;7.330;2024-02-04T02:48:35;9.40;99.90
62998;DHT22;55949;52.590;7.330;2024-02-04T02:49:36;9.40;99.90
62998;DHT22;55949;52.590;7.330;2024-02-04T02:50:37;9.50;99.90
62998;DHT22;55949;52.590;7.330;2024-02-04T02:51:38;9.40;99.90
62998;DHT22;55949;52.590;7.330;2024-02-04T02:52:38;9.40;99.90
62998;DHT22;55949;52.590;7.330;2024-02-04T02:53:39;9.50;99.90
62998;DHT22;55949;52.590;7.330;2024-02-04T02:54:40;9.50;99.90
62998;DHT22;55949;52.590;7.330;2024-02-04T02:55:40;9.40;99.90
62998;DHT22;55949;52.590;7.330;2024-02-04T02:56:44;9.50;99.90
62998;DHT22;55949;52.590;7.330;2024-02-04T02:57:45;9.40;99.90
62998;DHT22;55949;52.590;7.330;2024-02-04T02:58:45;9.40;99.90
62998;DHT22;55949;52.590;7.330;2024-02-04T02:59:46;9.40;99.90
62998;DHT22;55949;52.590;7.330;2024-02-04T03:00:47;9.50;99.90
62998;DHT22;55949;52.590;7.330;2024-02-04T03:01:48;9.40;99.90
62998;DHT22;55949;52.590;7.330;2024-02-04T03:02:48;9.40;99.90
62998;DHT22;55949;52.590;7.330;2024-02-04T03:03:49;9.30;99.90
62998;DHT22;55949;52.590;7.330;2024-02-04T03:04:50;9.30;99.90
62998;DHT22;55949;52.590;7.330;2024-02-04T03:05:51;9.30;99.90
62998;DHT22;55949;52.590;7.330;2024-02-04T03:06:51;9.30;99.90
62998;DHT22;55949;52.590;7.330;2024-02-04T03:07:52;9.40;99.90
62998;DHT22;55949;52.590;7.330;2024-02-04T03:08:53;9.30;99.90
62998;DHT22;55949;52.590;7.330;2024-02-04T03:09:54;9.20;99.90
62998;DHT22;55949;52.590;7.330;2024-02-04T03:10:55;9.30;99.90
62998;DHT22;55949;52.590;7.330;2024-02-04T03:11:55;9.30;99.90
62998;DHT22;55949;52.590;7.330;2024-02-04T03:12:56;9.30;99.90
62998;DHT22;55949;52.590;7.330;2024-02-04T03:13:57;9.30;99.90
62998;DHT22;55949;52.590;7.330;2024-02-04T03:14:58;9.20;99.90
62998;DHT22;55949;52.590;7.330;2024-02-04T03:15:58;9.20;99.90
62998;DHT22;55949;52.590;7.330;2024-02-04T03:16:59;9.20;99.90
62998;DHT22;55949;52.590;7.330;2024-02-04T03:18:00;9.20;99.90
62998;DHT22;55949;52.590;7.330;2024-02-04T03:19:00;9.10;99.90
62998;DHT22;55949;52.590;7.330;2024-02-04T03:20:05;9.20;99.90
62998;DHT22;55949;52.590;7.330;2024-02-04T03:21:16;9.10;99.90
62998;DHT22;55949;52.590;7.330;2024-02-04T03:22:18;9.00;99.90
62998;DHT22;55949;52.590;7.330;2024-02-04T03:23:18;9.00;99.90
62998;DHT22;55949;52.590;7.330;2024-02-04T03:24:20;9.00;99.90
62998;DHT22;55949;52.590;7.330;2024-02-04T03:25:20;8.90;99.90
62998;DHT22;55949;52.590;7.330;2024-02-04T03:26:23;8.90;99.90
62998;DHT22;55949;52.590;7.330;2024-02-04T03:27:24;8.90;99.90
62998;DHT22;55949;52.590;7.330;2024-02-04T03:28:24;8.80;99.90
62998;DHT22;55949;52.590;7.330;2024-02-04T03:29:27;8.80;99.90
62998;DHT22;55949;52.590;7.330;2024-02-04T03:30:28;8.80;99.90
62998;DHT22;55949;52.590;7.330;2024-02-04T03:31:29;8.80;99.90
62998;DHT22;55949;52.590;7.330;2024-02-04T03:32:29;8.80;99.90
62998;DHT22;55949;52.590;7.330;2024-02-04T03:33:33;8.70;99.90
62998;DHT22;55949;52.590;7.330;2024-02-04T03:34:34;8.80;99.90
62998;DHT22;55949;52.590;7.330;2024-02-04T03:35:36;8.70;99.90
62998;DHT22;55949;52.590;7.330;2024-02-04T03:36:39;8.60;99.90
62998;DHT22;55949;52.590;7.330;2024-02-04T03:37:39;8.60;99.90
62998;DHT22;55949;52.590;7.330;2024-02-04T03:38:40;8.70;99.90
62998;DHT22;55949;52.590;7.330;2024-02-04T03:39:41;8.60;99.90
62998;DHT22;55949;52.590;7.330;2024-02-04T03:40:41;8.70;99.90
62998;DHT22;55949;52.590;7.330;2024-02-04T03:41:43;8.70;99.90
62998;DHT22;55949;52.590;7.330;2024-02-04T03:42:43;8.70;99.90
62998;DHT22;55949;52.590;7.330;2024-02-04T03:43:44;8.70;99.90
62998;DHT22;55949;52.590;7.330;2024-02-04T03:44:46;8.70;99.90
62998;DHT22;55949;52.590;7.330;2024-02-04T03:45:46;8.70;99.90
62998;DHT22;55949;52.590;7.330;2024-02-04T03:46:48;8.70;99.90
62998;DHT22;55949;52.590;7.330;2024-02-04T03:47:49;8.70;99.90
62998;DHT22;55949;52.590;7.330;2024-02-04T03:48:49;8.70;99.90
62998;DHT22;55949;52.590;7.330;2024-02-04T03:49:50;8.70;99.90
62998;DHT22;55949;52.590;7.330;2024-02-04T03:50:51;8.70;99.90
62998;DHT22;55949;52.590;7.330;2024-02-04T03:51:51;8.60;99.90
62998;DHT22;55949;52.590;7.330;2024-02-04T03:52:52;8.60;99.90
62998;DHT22;55949;52.590;7.330;2024-02-04T03:53:53;8.60;99.90
62998;DHT22;55949;52.590;7.330;2024-02-04T03:54:56;8.60;99.90
62998;DHT22;55949;52.590;7.330;2024-02-04T03:55:59;8.60;99.90
62998;DHT22;55949;52.590;7.330;2024-02-04T03:57:00;8.60;99.90
62998;DHT22;55949;52.590;7.330;2024-02-04T03:58:01;8.60;99.90
62998;DHT22;55949;52.590;7.330;2024-02-04T03:59:02;8.60;99.90
62998;DHT22;55949;52.590;7.330;2024-02-04T04:00:03;8.60;99.90
62998;DHT22;55949;52.590;7.330;2024-02-04T04:01:04;8.70;99.90
62998;DHT22;55949;52.590;7.330;2024-02-04T04:02:05;8.60;99.90
62998;DHT22;55949;52.590;7.330;2024-02-04T04:03:06;8.60;99.90
62998;DHT22;55949;52.590;7.330;2024-02-04T04:04:07;8.60;99.90
62998;DHT22;55949;52.590;7.330;2024-02-04T04:05:11;8.60;99.90
62998;DHT22;55949;52.590;7.330;2024-02-04T04:06:15;8.60;99.90
62998;DHT22;55949;52.590;7.330;2024-02-04T04:07:15;8.60;99.90
62998;DHT22;55949;52.590;7.330;2024-02-04T04:08:16;8.70;99.90
62998;DHT22;55949;52.590;7.330;2024-02-04T04:09:18;8.70;99.90
62998;DHT22;55949;52.590;7.330;2024-02-04T04:10:21;8.80;99.90
62998;DHT22;55949;52.590;7.330;2024-02-04T04:11:22;8.60;99.90
62998;DHT22;55949;52.590;7.330;2024-02-04T04:12:22;8.60;99.90
62998;DHT22;55949;52.590;7.330;2024-02-04T04:13:23;8.60;99.90
62998;DHT22;55949;52.590;7.330;2024-02-04T04:14:24;8.60;99.90
62998;DHT22;55949;52.590;7.330;2024-02-04T04:15:24;8.60;99.90
62998;DHT22;55949;52.590;7.330;2024-02-04T04:16:25;8.60;99.90
62998;DHT22;55949;52.590;7.330;2024-02-04T04:17:26;8.50;99.90
62998;DHT22;55949;52.590;7.330;2024-02-04T04:18:26;8.60;99.90
62998;DHT22;55949;52.590;7.330;2024-02-04T04:19:27;8.60;99.90
62998;DHT22;55949;52.590;7.330;2024-02-04T04:20:28;8.60;99.90
62998;DHT22;55949;52.590;7.330;2024-02-04T04:21:28;8.60;99.90
62998;DHT22;55949;52.590;7.330;2024-02-04T04:22:32;8.50;99.90
62998;DHT22;55949;52.590;7.330;2024-02-04T04:23:33;8.50;99.90
62998;DHT22;55949;52.590;7.330;2024-02-04T04:24:34;8.50;99.90
62998;DHT22;55949;52.590;7.330;2024-02-04T04:25:34;8.50;99.90
62998;DHT22;55949;52.590;7.330;2024-02-04T04:26:35;8.50;99.90
62998;DHT22;55949;52.590;7.330;2024-02-04T04:27:39;8.50;99.90
62998;DHT22;55949;52.590;7.330;2024-02-04T04:28:40;8.50;99.90
62998;DHT22;55949;52.590;7.330;2024-02-04T04:29:40;8.50;99.90
62998;DHT22;55949;52.590;7.330;2024-02-04T04:30:41;8.40;99.90
62998;DHT22;55949;52.590;7.330;2024-02-04T04:31:45;8.40;99.90
62998;DHT22;55949;52.590;7.330;2024-02-04T04:32:46;8.40;99.90
62998;DHT22;55949;52.590;7.330;2024-02-04T04:33:49;8.40;99.90
62998;DHT22;55949;52.590;7.330;2024-02-04T04:34:50;8.40;99.90
62998;DHT22;55949;52.590;7.330;2024-02-04T04:35:51;8.30;99.90
62998;DHT22;55949;52.590;7.330;2024-02-04T04:36:51;8.40;99.90
62998;DHT22;55949;52.590;7.330;2024-02-04T04:37:52;8.40;99.90
62998;DHT22;55949;52.590;7.330;2024-02-04T04:38:53;8.30;99.90
62998;DHT22;55949;52.590;7.330;2024-02-04T04:39:54;8.30;99.90
62998;DHT22;55949;52.590;7.330;2024-02-04T04:40:55;8.30;99.90
62998;DHT22;55949;52.590;7.330;2024-02-04T04:41:58;8.30;99.90
62998;DHT22;55949;52.590;7.330;2024-02-04T04:42:58;8.20;99.90
62998;DHT22;55949;52.590;7.330;2024-02-04T04:43:59;8.20;99.90
62998;DHT22;55949;52.590;7.330;2024-02-04T04:45:00;8.20;99.90
62998;DHT22;55949;52.590;7.330;2024-02-04T04:46:01;8.20;99.90
62998;DHT22;55949;52.590;7.330;2024-02-04T04:47:02;8.20;99.90
62998;DHT22;55949;52.590;7.330;2024-02-04T04:48:05;8.20;99.90
62998;DHT22;55949;52.590;7.330;2024-02-04T04:49:09;8.20;99.90
62998;DHT22;55949;52.590;7.330;2024-02-04T04:50:10;8.20;99.90
62998;DHT22;55949;52.590;7.330;2024-02-04T04:51:13;8.30;99.90
62998;DHT22;55949;52.590;7.330;2024-02-04T04:52:16;8.30;99.90
62998;DHT22;55949;52.590;7.330;2024-02-04T04:53:17;8.20;99.90
62998;DHT22;55949;52.590;7.330;2024-02-04T04:54:17;8.20;99.90
62998;DHT22;55949;52.590;7.330;2024-02-04T04:55:19;8.20;99.90
62998;DHT22;55949;52.590;7.330;2024-02-04T04:56:20;8.20;99.90
62998;DHT22;55949;52.590;7.330;2024-02-04T04:57:20;8.20;99.90
62998;DHT22;55949;52.590;7.330;2024-02-04T04:58:21;8.20;99.90
62998;DHT22;55949;52.590;7.330;2024-02-04T04:59:22;8.20;99.90
62998;DHT22;55949;52.590;7.330;2024-02-04T05:00:25;8.20;99.90
62998;DHT22;55949;52.590;7.330;2024-02-04T05:01:25;8.30;99.90
62998;DHT22;55949;52.590;7.330;2024-02-04T05:02:26;8.20;99.90
62998;DHT22;55949;52.590;7.330;2024-02-04T05:03:27;8.20;99.90
62998;DHT22;55949;52.590;7.330;2024-02-04T05:04:27;8.30;99.90
62998;DHT22;55949;52.590;7.330;2024-02-04T05:05:28;8.20;99.90
62998;DHT22;55949;52.590;7.330;2024-02-04T05:06:29;8.20;99.90
62998;DHT22;55949;52.590;7.330;2024-02-04T05:07:29;8.30;99.90
62998;DHT22;55949;52.590;7.330;2024-02-04T05:08:30;8.20;99.90
62998;DHT22;55949;52.590;7.330;2024-02-04T05:09:31;8.30;99.90
62998;DHT22;55949;52.590;7.330;2024-02-04T05:10:31;8.30;99.90
62998;DHT22;55949;52.590;7.330;2024-02-04T05:11:35;8.30;99.90
62998;DHT22;55949;52.590;7.330;2024-02-04T05:12:38;8.30;99.90
62998;DHT22;55949;52.590;7.330;2024-02-04T05:13:39;8.40;99.90
62998;DHT22;55949;52.590;7.330;2024-02-04T05:14:40;8.20;99.90
62998;DHT22;55949;52.590;7.330;2024-02-04T05:15:41;8.20;99.90
62998;DHT22;55949;52.590;7.330;2024-02-04T05:16:42;8.20;99.90
62998;DHT22;55949;52.590;7.330;2024-02-04T05:17:44;8.20;99.90
62998;DHT22;55949;52.590;7.330;2024-02-04T05:18:47;8.20;99.90
62998;DHT22;55949;52.590;7.330;2024-02-04T05:19:48;8.20;99.90
62998;DHT22;55949;52.590;7.330;2024-02-04T05:20:51;8.20;99.90
62998;DHT22;55949;52.590;7.330;2024-02-04T05:21:51;8.20;99.90
62998;DHT22;55949;52.590;7.330;2024-02-04T05:22:52;8.10;99.90
62998;DHT22;55949;52.590;7.330;2024-02-04T05:23:54;8.10;99.90
62998;DHT22;55949;52.590;7.330;2024-02-04T05:24:55;8.10;99.90
62998;DHT22;55949;52.590;7.330;2024-02-04T05:25:56;8.10;99.90
62998;DHT22;55949;52.590;7.330;2024-02-04T05:26:56;8.10;99.90
62998;DHT22;55949;52.590;7.330;2024-02-04T05:27:57;8.10;99.90
62998;DHT22;55949;52.590;7.330;2024-02-04T05:28:58;8.10;99.90
62998;DHT22;55949;52.590;7.330;2024-02-04T05:29:58;8.20;99.90
62998;DHT22;55949;52.590;7.330;2024-02-04T05:31:01;8.20;99.90
62998;DHT22;55949;52.590;7.330;2024-02-04T05:32:02;8.20;99.90
62998;DHT22;55949;52.590;7.330;2024-02-04T05:33:03;8.10;99.90
62998;DHT22;55949;52.590;7.330;2024-02-04T05:34:05;8.10;99.90
62998;DHT22;55949;52.590;7.330;2024-02-04T05:35:10;8.20;99.90
62998;DHT22;55949;52.590;7.330;2024-02-04T05:36:10;8.10;99.90
62998;DHT22;55949;52.590;7.330;2024-02-04T05:37:14;8.20;99.90
62998;DHT22;55949;52.590;7.330;2024-02-04T05:38:16;8.20;99.90
62998;DHT22;55949;52.590;7.330;2024-02-04T05:39:17;8.30;99.90
62998;DHT22;55949;52.590;7.330;2024-02-04T05:40:18;8.40;99.90
62998;DHT22;55949;52.590;7.330;2024-02-04T05:41:20;8.20;99.90
62998;DHT22;55949;52.590;7.330;2024-02-04T05:42:21;8.30;99.90
62998;DHT22;55949;52.590;7.330;2024-02-04T05:43:22;8.30;99.90
62998;DHT22;55949;52.590;7.330;2024-02-04T05:44:22;8.30;99.90
62998;DHT22;55949;52.590;7.330;2024-02-04T05:45:23;8.30;99.90
62998;DHT22;55949;52.590;7.330;2024-02-04T05:46:24;8.30;99.90
62998;DHT22;55949;52.590;7.330;2024-02-04T05:47:24;8.20;99.90
62998;DHT22;55949;52.590;7.330;2024-02-04T05:48:25;8.30;99.90
62998;DHT22;55949;52.590;7.330;2024-02-04T05:49:26;8.30;99.90
62998;DHT22;55949;52.590;7.330;2024-02-04T05:50:29;8.20;99.90
62998;DHT22;55949;52.590;7.330;2024-02-04T05:51:38;8.20;99.90
62998;DHT22;55949;52.590;7.330;2024-02-04T05:52:42;8.20;99.90
62998;DHT22;55949;52.590;7.330;2024-02-04T05:53:43;8.30;99.90
62998;DHT22;55949;52.590;7.330;2024-02-04T05:54:43;8.20;99.90
62998;DHT22;55949;52.590;7.330;2024-02-04T05:55:46;8.20;99.90
62998;DHT22;55949;52.590;7.330;2024-02-04T05:56:47;8.20;99.90
62998;DHT22;55949;52.590;7.330;2024-02-04T05:57:48;8.20;99.90
62998;DHT22;55949;52.590;7.330;2024-02-04T05:58:51;8.20;99.90
62998;DHT22;55949;52.590;7.330;2024-02-04T05:59:54;8.20;99.90
62998;DHT22;55949;52.590;7.330;2024-02-04T06:00:55;8.20;99.90
62998;DHT22;55949;52.590;7.330;2024-02-04T06:01:56;8.20;99.90
62998;DHT22;55949;52.590;7.330;2024-02-04T06:02:57;8.20;99.90
62998;DHT22;55949;52.590;7.330;2024-02-04T06:03:58;8.20;99.90
62998;DHT22;55949;52.590;7.330;2024-02-04T06:04:58;8.20;99.90
62998;DHT22;55949;52.590;7.330;2024-02-04T06:05:59;8.20;99.90
62998;DHT22;55949;52.590;7.330;2024-02-04T06:07:08;8.20;99.90
62998;DHT22;55949;52.590;7.330;2024-02-04T06:10:12;8.20;99.90
62998;DHT22;55949;52.590;7.330;2024-02-04T06:11:22;8.20;99.90
62998;DHT22;55949;52.590;7.330;2024-02-04T06:12:31;8.20;99.90
62998;DHT22;55949;52.590;7.330;2024-02-04T06:15:57;8.20;99.90
62998;DHT22;55949;52.590;7.330;2024-02-04T06:17:20;8.20;99.90
62998;DHT22;55949;52.590;7.330;2024-02-04T06:18:55;8.20;99.90
62998;DHT22;55949;52.590;7.330;2024-02-04T06:20:04;8.20;99.90
62998;DHT22;55949;52.590;7.330;2024-02-04T06:21:22;8.20;99.90
62998;DHT22;55949;52.590;7.330;2024-02-04T06:22:37;8.20;99.90
62998;DHT22;55949;52.590;7.330;2024-02-04T06:23:39;8.20;99.90
62998;DHT22;55949;52.590;7.330;2024-02-04T06:24:40;8.20;99.90
62998;DHT22;55949;52.590;7.330;2024-02-04T06:25:52;8.20;99.90
62998;DHT22;55949;52.590;7.330;2024-02-04T06:27:00;8.20;99.90
62998;DHT22;55949;52.590;7.330;2024-02-04T06:28:19;8.20;99.90
62998;DHT22;55949;52.590;7.330;2024-02-04T06:29:30;8.20;99.90
62998;DHT22;55949;52.590;7.330;2024-02-04T06:30:36;8.20;99.90
62998;DHT22;55949;52.590;7.330;2024-02-04T06:31:39;8.20;99.90
62998;DHT22;55949;52.590;7.330;2024-02-04T06:33:02;8.20;99.90
62998;DHT22;55949;52.590;7.330;2024-02-04T06:34:42;8.20;99.90
62998;DHT22;55949;52.590;7.330;2024-02-04T06:35:59;8.20;99.90
62998;DHT22;55949;52.590;7.330;2024-02-04T06:37:08;8.30;99.90
62998;DHT22;55949;52.590;7.330;2024-02-04T06:39:39;8.20;99.90
62998;DHT22;55949;52.590;7.330;2024-02-04T06:44:31;8.30;99.90
62998;DHT22;55949;52.590;7.330;2024-02-04T06:46:11;8.30;99.90
62998;DHT22;55949;52.590;7.330;2024-02-04T06:47:12;8.30;99.90
62998;DHT22;55949;52.590;7.330;2024-02-04T06:48:14;8.30;99.90
62998;DHT22;55949;52.590;7.330;2024-02-04T06:49:15;8.30;99.90
62998;DHT22;55949;52.590;7.330;2024-02-04T06:50:21;8.30;99.90
62998;DHT22;55949;52.590;7.330;2024-02-04T06:51:22;8.30;99.90
62998;DHT22;55949;52.590;7.330;2024-02-04T06:52:23;8.30;99.90
62998;DHT22;55949;52.590;7.330;2024-02-04T06:53:24;8.40;99.90
62998;DHT22;55949;52.590;7.330;2024-02-04T06:54:29;8.30;99.90
62998;DHT22;55949;52.590;7.330;2024-02-04T06:55:30;8.40;99.90